Terminal Aerodrome Forecast
Issued by NWS

Home | Current Version | Previous Version | Text Only | Print | Product List | Glossary On
Versions: 1 2 3 4 5 6 7 8 9 10 11 12 13 14 15 16 17 18 19 20 21 22 23 24
160
FTUS44 KTSA 161125
TAFRVS
TAF
KRVS 161125Z 1612/1712 17005KT P6SM SKC
     FM161500 19011G17KT P6SM BKN250
     FM170200 19010KT P6SM VCTS BKN040CB
      TEMPO 1702/1705 3SM TSRA BKN040CB
     FM170500 21008KT P6SM SCT080 BKN250=

USA.gov is the U.S. government's official web portal to all federal, state and local government web resources and services.